Time;durP1;ratioP1;P1;durP2;ratioP2;P2;SDS_P1;SDS_P2;PMS_P1;PMS_P2;Temp;Humidity;BMP_temperature;BMP_pressure;BME280_temperature;BME280_humidity;BME280_pressure;Samples;Min_cycle;Max_cycle;Signal;HPM_P1;HPM_P2
2023/05/15 00:00:59;;;;;;;;;;;;;;;-147.27;100.00;65176.34;5113704;28;19958;-51
2023/05/15 00:03:25;;;;;;;;;;;;;;;-147.27;100.00;65176.34;5117593;28;19927;-51
2023/05/15 00:05:51;;;;;;;;;;;;;;;-147.27;100.00;65176.34;5112823;28;19955;-51
2023/05/15 00:08:17;;;;;;;;;;;;;;;-147.27;100.00;65176.34;5117096;28;19916;-55
2023/05/15 00:10:42;;;;;;;;;;;;;;;-147.27;100.00;65176.34;5118357;28;20413;-49
2023/05/15 00:13:08;;;;;;;;;;;;;;;-147.27;100.00;65176.34;5116184;28;19916;-51
2023/05/15 00:15:33;;;;;;;;;;;;;;;-147.27;100.00;65176.34;5116469;28;19924;-51
2023/05/15 00:17:58;;;;;;;;;;;;;;;-147.27;100.00;65176.34;5113907;28;19984;-50
2023/05/15 00:20:24;;;;;;;;;;;;;;;-147.27;100.00;65176.34;5118100;28;20419;-52
2023/05/15 00:22:50;;;;;;;;;;;;;;;-147.27;100.00;65176.34;5123085;28;19924;-51
2023/05/15 00:25:15;;;;;;;;;;;;;;;-147.27;100.00;65176.34;5121839;28;19931;-52
2023/05/15 00:27:41;;;;;;;;;;;;;;;-147.27;100.00;65176.34;5123270;28;19916;-52
2023/05/15 00:30:07;;;;;;;;;;;;;;;-147.27;100.00;65176.34;5119801;28;19971;-52
2023/05/15 00:32:32;;;;;;;;;;;;;;;-147.27;100.00;65176.34;5121954;28;19916;-54
2023/05/15 00:34:58;;;;;;;;;;;;;;;-147.27;100.00;65176.34;5122311;28;19980;-52
2023/05/15 00:37:23;;;;;;;;;;;;;;;-147.27;100.00;65176.34;5121291;28;19916;-50
2023/05/15 00:39:50;;;;;;;;;;;;;;;-147.27;100.00;65176.34;5121859;28;19930;-53
2023/05/15 00:42:16;;;;;;;;;;;;;;;-147.27;100.00;65176.34;5122166;28;19927;-50
2023/05/15 00:44:43;;;;;;;;;;;;;;;-147.27;100.00;65176.34;5122198;27;19981;-52
2023/05/15 00:47:09;;;;;;;;;;;;;;;-147.27;100.00;65176.34;5122102;28;19919;-54
2023/05/15 00:49:36;;;;;;;;;;;;;;;-147.27;100.00;65176.34;5120755;28;19924;-52
2023/05/15 00:52:02;;;;;;;;;;;;;;;-147.27;100.00;65176.34;5123849;28;19954;-56
2023/05/15 00:54:28;;;;;;;;;;;;;;;-147.27;100.00;65176.34;5123504;28;20301;-53
2023/05/15 00:56:58;;;;;;;;;;;;;;;-147.27;100.00;65176.34;5121560;28;19916;-52
2023/05/15 00:59:27;;;;;;;;;;;;;;;-147.27;100.00;65176.34;5154272;27;19916;-52
2023/05/15 01:01:52;;;;;;;;;;;;;;;-147.27;100.00;65176.34;5122105;28;19916;-49
2023/05/15 01:04:18;;;;;;;;;;;;;;;-147.27;100.00;65176.34;5121978;28;19992;-53
2023/05/15 01:06:44;;;;;;;;;;;;;;;-147.27;100.00;65176.34;5123934;28;19924;-50
2023/05/15 01:09:10;;;;;;;;;;;;;;;-147.27;100.00;65176.34;5125168;28;19916;-50
2023/05/15 01:11:36;;;;;;;;;;;;;;;-147.27;100.00;65176.34;5125206;28;19915;-52
2023/05/15 01:14:04;;;;;;;;;;;;;;;-147.27;100.00;65176.34;5126347;28;19915;-54
2023/05/15 01:16:30;;;;;;;;;;;;;;;-147.27;100.00;65176.34;5124747;28;19954;-52
2023/05/15 01:18:55;;;;;;;;;;;;;;;-147.27;100.00;65176.34;5124360;28;19916;-51
2023/05/15 01:21:26;;;;;;;;;;;;;;;-147.27;100.00;65176.34;5123417;28;19920;-53
2023/05/15 01:23:55;;;;;;;;;;;;;;;-147.27;100.00;65176.34;5119565;28;19920;-50
2023/05/15 01:26:32;;;;;;;;;;;;;;;-147.27;100.00;65176.34;5120703;28;19971;-52
2023/05/15 01:29:22;;;;;;;;;;;;;;;-147.27;100.00;65176.34;5119253;28;20067;-54
2023/05/15 01:31:50;;;;;;;;;;;;;;;-147.27;100.00;65176.34;5113864;28;19922;-50
2023/05/15 01:34:18;;;;;;;;;;;;;;;-147.27;100.00;65176.34;5121852;28;19924;-52
2023/05/15 01:36:50;;;;;;;;;;;;;;;-147.27;100.00;65176.34;5119803;28;20007;-51
2023/05/15 01:39:18;;;;;;;;;;;;;;;-147.27;100.00;65176.34;5122507;28;19915;-52
2023/05/15 01:41:50;;;;;;;;;;;;;;;-147.27;100.00;65176.34;5121616;28;20438;-52
2023/05/15 01:44:30;;;;;;;;;;;;;;;-147.27;100.00;65176.34;5119451;28;20090;-50
2023/05/15 01:47:00;;;;;;;;;;;;;;;-147.27;100.00;65176.34;5119757;28;19927;-50
2023/05/15 01:49:27;;;;;;;;;;;;;;;-147.27;100.00;65176.34;5154471;27;19916;-53
2023/05/15 01:52:00;;;;;;;;;;;;;;;-147.27;100.00;65176.34;5122320;28;19916;-51
2023/05/15 01:54:26;;;;;;;;;;;;;;;-147.27;100.00;65176.34;5120646;28;19927;-53
2023/05/15 01:56:53;;;;;;;;;;;;;;;-147.27;100.00;65176.34;5122180;28;19927;-52
2023/05/15 01:59:20;;;;;;;;;;;;;;;-147.27;100.00;65176.34;5122537;28;19984;-50
2023/05/15 02:01:46;;;;;;;;;;;;;;;-147.27;100.00;65176.34;5117841;28;19923;-52
2023/05/15 02:04:13;;;;;;;;;;;;;;;-147.27;100.00;65176.34;5120329;28;19920;-51
2023/05/15 02:06:39;;;;;;;;;;;;;;;-147.27;100.00;65176.34;5120602;28;19926;-52
2023/05/15 02:09:04;;;;;;;;;;;;;;;-147.27;100.00;65176.34;5119749;28;19922;-49
2023/05/15 02:11:30;;;;;;;;;;;;;;;-147.27;100.00;65176.34;5120528;28;19951;-53
2023/05/15 02:13:56;;;;;;;;;;;;;;;-147.27;100.00;65176.34;5138875;27;19959;-48
2023/05/15 02:16:22;;;;;;;;;;;;;;;-147.27;100.00;65176.34;5122767;28;19916;-52
2023/05/15 02:18:47;;;;;;;;;;;;;;;-147.27;100.00;65176.34;5123458;28;19984;-49
2023/05/15 02:21:13;;;;;;;;;;;;;;;-147.27;100.00;65176.34;5121351;28;19916;-52
2023/05/15 02:23:40;;;;;;;;;;;;;;;-147.27;100.00;65176.34;5122035;28;19920;-52
2023/05/15 02:26:24;;;;;;;;;;;;;;;-147.27;100.00;65176.34;5122780;28;19987;-51
2023/05/15 02:29:11;;;;;;;;;;;;;;;-147.27;100.00;65176.34;5120110;28;19935;-51
2023/05/15 02:31:45;;;;;;;;;;;;;;;-147.27;100.00;65176.34;5119128;28;19927;-48
2023/05/15 02:34:14;;;;;;;;;;;;;;;-147.27;100.00;65176.34;5121835;28;19979;-52
2023/05/15 02:36:43;;;;;;;;;;;;;;;-147.27;100.00;65176.34;5119078;28;20008;-50
2023/05/15 02:39:10;;;;;;;;;;;;;;;-147.27;100.00;65176.34;5119519;28;19916;-51
2023/05/15 02:41:36;;;;;;;;;;;;;;;-147.27;100.00;65176.34;5118108;28;19916;-53
2023/05/15 02:44:03;;;;;;;;;;;;;;;-147.27;100.00;65176.34;5114826;28;19920;-52
2023/05/15 02:46:29;;;;;;;;;;;;;;;-147.27;100.00;65176.34;5114215;28;19916;-50
2023/05/15 02:48:55;;;;;;;;;;;;;;;-147.27;100.00;65176.34;5113053;28;19946;-50
2023/05/15 02:51:20;;;;;;;;;;;;;;;-147.27;100.00;65176.34;5117749;28;19975;-53
2023/05/15 02:53:46;;;;;;;;;;;;;;;-147.27;100.00;65176.34;5112164;28;19924;-52
2023/05/15 02:56:12;;;;;;;;;;;;;;;-147.27;100.00;65176.34;5149153;27;19916;-51
2023/05/15 02:58:38;;;;;;;;;;;;;;;-147.27;100.00;65176.34;5114272;28;19916;-47
2023/05/15 03:01:04;;;;;;;;;;;;;;;-147.27;100.00;65176.34;5117651;28;19923;-47
2023/05/15 03:03:29;;;;;;;;;;;;;;;-147.27;100.00;65176.34;5115444;28;19928;-48
2023/05/15 03:05:55;;;;;;;;;;;;;;;-147.27;100.00;65176.34;5112931;28;19916;-49
2023/05/15 03:08:20;;;;;;;;;;;;;;;-147.27;100.00;65176.34;5113373;28;19916;-52
2023/05/15 03:10:46;;;;;;;;;;;;;;;-147.27;100.00;65176.34;5117839;28;19931;-48
2023/05/15 03:13:11;;;;;;;;;;;;;;;-147.27;100.00;65176.34;5119313;28;19954;-51
2023/05/15 03:15:37;;;;;;;;;;;;;;;-147.27;100.00;65176.34;5117936;28;20343;-50
2023/05/15 03:18:03;;;;;;;;;;;;;;;-147.27;100.00;65176.34;5120426;28;19971;-49
2023/05/15 03:20:28;;;;;;;;;;;;;;;-147.27;100.00;65176.34;5121328;28;19919;-50
2023/05/15 03:22:53;;;;;;;;;;;;;;;-147.27;100.00;65176.34;5128174;28;19924;-51
2023/05/15 03:25:19;;;;;;;;;;;;;;;-147.27;100.00;65176.34;5129348;28;19943;-53
2023/05/15 03:27:45;;;;;;;;;;;;;;;-147.27;100.00;65176.34;5128278;28;19914;-51
2023/05/15 03:30:11;;;;;;;;;;;;;;;-147.27;100.00;65176.34;5124093;28;19944;-52
2023/05/15 03:32:36;;;;;;;;;;;;;;;-147.27;100.00;65176.34;5128473;28;19915;-51
2023/05/15 03:35:03;;;;;;;;;;;;;;;-147.27;100.00;65176.34;5126933;28;19975;-48
2023/05/15 03:37:28;;;;;;;;;;;;;;;-147.27;100.00;65176.34;5123106;28;19923;-50
2023/05/15 03:39:53;;;;;;;;;;;;;;;-147.27;100.00;65176.34;5129307;28;19979;-54
2023/05/15 03:42:22;;;;;;;;;;;;;;;-147.27;100.00;65176.34;5128572;28;19931;-53
2023/05/15 03:44:50;;;;;;;;;;;;;;;-147.27;100.00;65176.34;5128186;28;19920;-52
2023/05/15 03:47:16;;;;;;;;;;;;;;;-147.27;100.00;65176.34;5126790;28;19921;-54
2023/05/15 03:49:42;;;;;;;;;;;;;;;-147.27;100.00;65176.34;5128540;28;19923;-52
2023/05/15 03:52:08;;;;;;;;;;;;;;;-147.27;100.00;65176.34;5126166;28;19915;-53
2023/05/15 03:54:34;;;;;;;;;;;;;;;-147.27;100.00;65176.34;5125693;28;19920;-50
2023/05/15 03:56:59;;;;;;;;;;;;;;;-147.27;100.00;65176.34;5123741;28;19923;-52
2023/05/15 03:59:24;;;;;;;;;;;;;;;-147.27;100.00;65176.34;5124844;28;19983;-52
2023/05/15 04:01:50;;;;;;;;;;;;;;;-147.27;100.00;65176.34;5124717;28;19928;-52
2023/05/15 04:04:15;;;;;;;;;;;;;;;-147.27;100.00;65176.34;5125613;28;19942;-51
2023/05/15 04:06:41;;;;;;;;;;;;;;;-147.27;100.00;65176.34;5127894;28;19923;-50
2023/05/15 04:09:07;;;;;;;;;;;;;;;-147.27;100.00;65176.34;5126301;28;19916;-50
2023/05/15 04:11:33;;;;;;;;;;;;;;;-147.27;100.00;65176.34;5127381;28;19980;-49
2023/05/15 04:13:59;;;;;;;;;;;;;;;-147.27;100.00;65176.34;5126231;28;19923;-51
2023/05/15 04:16:24;;;;;;;;;;;;;;;-147.27;100.00;65176.34;5125316;28;19979;-51
2023/05/15 04:18:50;;;;;;;;;;;;;;;-147.27;100.00;65176.34;5125466;28;19930;-49
2023/05/15 04:21:15;;;;;;;;;;;;;;;-147.27;100.00;65176.34;5125792;28;19923;-51
2023/05/15 04:23:41;;;;;;;;;;;;;;;-147.27;100.00;65176.34;5121297;28;19920;-54
2023/05/15 04:26:07;;;;;;;;;;;;;;;-147.27;100.00;65176.34;5115524;28;19916;-48
2023/05/15 04:28:32;;;;;;;;;;;;;;;-147.27;100.00;65176.34;5116287;28;19917;-52
2023/05/15 04:30:58;;;;;;;;;;;;;;;-147.27;100.00;65176.34;5115779;28;19930;-55
2023/05/15 04:33:24;;;;;;;;;;;;;;;-147.27;100.00;65176.34;5116351;28;19915;-56
2023/05/15 04:35:50;;;;;;;;;;;;;;;-147.27;100.00;65176.34;5117025;28;19932;-53
2023/05/15 04:38:16;;;;;;;;;;;;;;;-147.27;100.00;65176.34;5116654;28;19923;-50
2023/05/15 04:40:41;;;;;;;;;;;;;;;-147.27;100.00;65176.34;5116397;28;19912;-49
2023/05/15 04:43:07;;;;;;;;;;;;;;;-147.27;100.00;65176.34;5116039;28;19923;-49
2023/05/15 04:45:32;;;;;;;;;;;;;;;-147.27;100.00;65176.34;5115874;28;19927;-54
2023/05/15 04:47:57;;;;;;;;;;;;;;;-147.27;100.00;65176.34;5118531;28;19916;-51
2023/05/15 04:50:23;;;;;;;;;;;;;;;-147.27;100.00;65176.34;5122978;28;19942;-52
2023/05/15 04:52:48;;;;;;;;;;;;;;;-147.27;100.00;65176.34;5115592;28;19927;-52
2023/05/15 04:55:14;;;;;;;;;;;;;;;-147.27;100.00;65176.34;5107714;28;19916;-50
2023/05/15 04:57:39;;;;;;;;;;;;;;;-147.27;100.00;65176.34;5107249;28;19925;-53
2023/05/15 05:00:10;;;;;;;;;;;;;;;-147.27;100.00;65176.34;5106326;28;19923;-49
2023/05/15 05:02:36;;;;;;;;;;;;;;;-147.27;100.00;65176.34;5102189;28;19916;-52
2023/05/15 05:05:02;;;;;;;;;;;;;;;-147.27;100.00;65176.34;5106027;28;19931;-51
2023/05/15 05:07:28;;;;;;;;;;;;;;;-147.27;100.00;65176.34;5106245;28;19937;-48
2023/05/15 05:09:53;;;;;;;;;;;;;;;-147.27;100.00;65176.34;5106435;28;20017;-54
2023/05/15 05:12:18;;;;;;;;;;;;;;;-147.27;100.00;65176.34;5122643;28;19942;-49
2023/05/15 05:14:44;;;;;;;;;;;;;;;-147.27;100.00;65176.34;5108188;28;19928;-54
2023/05/15 05:17:10;;;;;;;;;;;;;;;-147.27;100.00;65176.34;5107702;28;19921;-51
2023/05/15 05:19:35;;;;;;;;;;;;;;;-147.27;100.00;65176.34;5107405;28;19916;-50
2023/05/15 05:22:03;;;;;;;;;;;;;;;-147.27;100.00;65176.34;5108812;28;19981;-48
2023/05/15 05:24:34;;;;;;;;;;;;;;;-147.27;100.00;65176.34;5107399;28;19962;-54
2023/05/15 05:26:59;;;;;;;;;;;;;;;-147.27;100.00;65176.34;5109811;28;20102;-50
2023/05/15 05:29:24;;;;;;;;;;;;;;;-147.27;100.00;65176.34;5108163;28;19916;-53
2023/05/15 05:31:50;;;;;;;;;;;;;;;-147.27;100.00;65176.34;5107500;28;19920;-52
2023/05/15 05:34:15;;;;;;;;;;;;;;;-147.27;100.00;65176.34;5107955;28;19923;-53
2023/05/15 05:36:41;;;;;;;;;;;;;;;-147.27;100.00;65176.34;5108058;28;19969;-54
2023/05/15 05:39:07;;;;;;;;;;;;;;;-147.27;100.00;65176.34;5105518;28;19938;-52
2023/05/15 05:41:32;;;;;;;;;;;;;;;-147.27;100.00;65176.34;5106063;28;19945;-49
2023/05/15 05:43:57;;;;;;;;;;;;;;;-147.27;100.00;65176.34;5105850;28;20060;-54
2023/05/15 05:46:23;;;;;;;;;;;;;;;-147.27;100.00;65176.34;5102641;28;19923;-51
2023/05/15 05:48:48;;;;;;;;;;;;;;;-147.27;100.00;65176.34;5104237;28;19924;-52
2023/05/15 05:51:14;;;;;;;;;;;;;;;-147.27;100.00;65176.34;5105528;28;19927;-56
2023/05/15 05:53:40;;;;;;;;;;;;;;;-147.27;100.00;65176.34;5111666;28;19927;-53
2023/05/15 05:56:05;;;;;;;;;;;;;;;-147.27;100.00;65176.34;5121918;28;19980;-53
2023/05/15 05:58:31;;;;;;;;;;;;;;;-147.27;100.00;65176.34;5122072;28;19924;-53
2023/05/15 06:00:56;;;;;;;;;;;;;;;-147.27;100.00;65176.34;5121197;28;19916;-52
2023/05/15 06:03:21;;;;;;;;;;;;;;;-147.27;100.00;65176.34;5122059;28;19927;-50
2023/05/15 06:05:47;;;;;;;;;;;;;;;-147.27;100.00;65176.34;5117699;28;19916;-48
2023/05/15 06:08:13;;;;;;;;;;;;;;;-147.27;100.00;65176.34;5122489;28;19916;-51
2023/05/15 06:10:38;;;;;;;;;;;;;;;-147.27;100.00;65176.34;5121084;28;19916;-46
2023/05/15 06:13:04;;;;;;;;;;;;;;;-147.27;100.00;65176.34;5118161;28;19915;-52
2023/05/15 06:15:29;;;;;;;;;;;;;;;-147.27;100.00;65176.34;5119023;28;19915;-51
2023/05/15 06:17:55;;;;;;;;;;;;;;;-147.27;100.00;65176.34;5121796;28;19938;-48
2023/05/15 06:20:21;;;;;;;;;;;;;;;-147.27;100.00;65176.34;5117041;28;19931;-49
2023/05/15 06:22:46;;;;;;;;;;;;;;;-147.27;100.00;65176.34;5119796;28;19926;-48
2023/05/15 06:25:13;;;;;;;;;;;;;;;-147.27;100.00;65176.34;5119531;28;19915;-53
2023/05/15 06:27:39;;;;;;;;;;;;;;;-147.27;100.00;65176.34;5122001;28;19916;-51
2023/05/15 06:30:05;;;;;;;;;;;;;;;-147.27;100.00;65176.34;5117626;28;19944;-52
2023/05/15 06:32:32;;;;;;;;;;;;;;;-147.27;100.00;65176.34;5144625;27;19920;-49
2023/05/15 06:34:58;;;;;;;;;;;;;;;-147.27;100.00;65176.34;5117801;28;19924;-51
2023/05/15 06:37:23;;;;;;;;;;;;;;;-147.27;100.00;65176.34;5145744;27;19916;-54
2023/05/15 06:39:49;;;;;;;;;;;;;;;-147.27;100.00;65176.34;5119017;28;19974;-51
2023/05/15 06:42:14;;;;;;;;;;;;;;;-147.27;100.00;65176.34;5118843;28;19916;-53
2023/05/15 06:44:40;;;;;;;;;;;;;;;-147.27;100.00;65176.34;5117475;28;20059;-52
2023/05/15 06:47:05;;;;;;;;;;;;;;;-147.27;100.00;65176.34;5113760;28;19938;-51
2023/05/15 06:49:31;;;;;;;;;;;;;;;-147.27;100.00;65176.34;5120000;28;19920;-52
2023/05/15 06:51:56;;;;;;;;;;;;;;;-147.27;100.00;65176.34;5114660;28;19931;-54
2023/05/15 06:54:21;;;;;;;;;;;;;;;-147.27;100.00;65176.34;5107978;28;20376;-52
2023/05/15 06:56:46;;;;;;;;;;;;;;;-147.27;100.00;65176.34;5104048;28;19916;-55
2023/05/15 06:59:12;;;;;;;;;;;;;;;-147.27;100.00;65176.34;5085824;28;19916;-55
2023/05/15 07:01:38;;;;;;;;;;;;;;;-147.27;100.00;65176.34;5104594;28;19916;-55
2023/05/15 07:04:04;;;;;;;;;;;;;;;-147.27;100.00;65176.34;5101867;28;19984;-53
2023/05/15 07:06:30;;;;;;;;;;;;;;;-147.27;100.00;65176.34;5101352;28;19916;-53
2023/05/15 07:08:57;;;;;;;;;;;;;;;-147.27;100.00;65176.34;5105908;28;19923;-56
2023/05/15 07:11:22;;;;;;;;;;;;;;;-147.27;100.00;65176.34;5105250;28;19995;-50
2023/05/15 07:13:48;;;;;;;;;;;;;;;-147.27;100.00;65176.34;5103793;28;19916;-52
2023/05/15 07:16:13;;;;;;;;;;;;;;;-147.27;100.00;65176.34;5104721;28;19925;-52
2023/05/15 07:18:39;;;;;;;;;;;;;;;-147.27;100.00;65176.34;5104207;28;19926;-52
2023/05/15 07:21:04;;;;;;;;;;;;;;;-147.27;100.00;65176.34;5103672;28;19920;-51
2023/05/15 07:23:30;;;;;;;;;;;;;;;-147.27;100.00;65176.34;5090421;28;19995;-53
2023/05/15 07:25:56;;;;;;;;;;;;;;;-147.27;100.00;65176.34;5105244;28;19916;-55
2023/05/15 07:28:21;;;;;;;;;;;;;;;-147.27;100.00;65176.34;5107919;28;19912;-53
2023/05/15 07:30:47;;;;;;;;;;;;;;;-147.27;100.00;65176.34;5102196;28;19916;-53
2023/05/15 07:33:12;;;;;;;;;;;;;;;-147.27;100.00;65176.34;5103970;28;19923;-54
2023/05/15 07:35:38;;;;;;;;;;;;;;;-147.27;100.00;65176.34;5102951;28;19916;-52
2023/05/15 07:38:03;;;;;;;;;;;;;;;-147.27;100.00;65176.34;5087169;28;19916;-53
2023/05/15 07:40:29;;;;;;;;;;;;;;;-147.27;100.00;65176.34;5105880;28;19917;-52
2023/05/15 07:42:55;;;;;;;;;;;;;;;-147.27;100.00;65176.34;5103371;28;19931;-50
2023/05/15 07:45:20;;;;;;;;;;;;;;;-147.27;100.00;65176.34;5102665;28;19916;-48
2023/05/15 07:47:47;;;;;;;;;;;;;;;-147.27;100.00;65176.34;5106950;28;19979;-52
2023/05/15 07:50:14;;;;;;;;;;;;;;;-147.27;100.00;65176.34;5105177;28;19917;-52
2023/05/15 07:52:40;;;;;;;;;;;;;;;-147.27;100.00;65176.34;5087248;28;19922;-52
2023/05/15 07:55:06;;;;;;;;;;;;;;;-147.27;100.00;65176.34;5117343;28;19920;-49
2023/05/15 07:57:31;;;;;;;;;;;;;;;-147.27;100.00;65176.34;5118206;28;20001;-55
2023/05/15 07:59:57;;;;;;;;;;;;;;;-147.27;100.00;65176.34;5125596;28;19916;-53
2023/05/15 08:02:22;;;;;;;;;;;;;;;-147.27;100.00;65176.34;5124570;28;19915;-47
2023/05/15 08:04:47;;;;;;;;;;;;;;;-147.27;100.00;65176.34;5124264;28;19935;-47
2023/05/15 08:07:13;;;;;;;;;;;;;;;-147.27;100.00;65176.34;5120857;28;19991;-51
2023/05/15 08:09:38;;;;;;;;;;;;;;;-147.27;100.00;65176.34;5123822;28;19916;-50
2023/05/15 08:12:16;;;;;;;;;;;;;;;-147.27;100.00;65176.34;5122953;28;20275;-50
2023/05/15 08:14:42;;;;;;;;;;;;;;;-147.27;100.00;65176.34;5122409;28;19916;-50
2023/05/15 08:17:07;;;;;;;;;;;;;;;-147.27;100.00;65176.34;5121768;28;19972;-50
2023/05/15 08:19:32;;;;;;;;;;;;;;;-147.27;100.00;65176.34;5123651;28;20013;-52
2023/05/15 08:21:58;;;;;;;;;;;;;;;-147.27;100.00;65176.34;5123604;27;19916;-48
2023/05/15 08:24:23;;;;;;;;;;;;;;;-147.27;100.00;65176.34;5122841;28;19932;-50
2023/05/15 08:26:49;;;;;;;;;;;;;;;-147.27;100.00;65176.34;5123858;28;19987;-50
2023/05/15 08:29:15;;;;;;;;;;;;;;;-147.27;100.00;65176.34;5114630;28;19935;-52
2023/05/15 08:31:41;;;;;;;;;;;;;;;-147.27;100.00;65176.34;5118426;28;19916;-51
2023/05/15 08:34:06;;;;;;;;;;;;;;;-147.27;100.00;65176.34;5119800;28;19923;-53
2023/05/15 08:36:32;;;;;;;;;;;;;;;-147.27;100.00;65176.34;5118622;28;19943;-54
2023/05/15 08:38:58;;;;;;;;;;;;;;;-147.27;100.00;65176.34;5120835;28;19927;-54
2023/05/15 08:41:30;;;;;;;;;;;;;;;-147.27;100.00;65176.34;5123767;28;19919;-55
2023/05/15 08:43:57;;;;;;;;;;;;;;;-147.27;100.00;65176.34;5120980;28;19920;-52
2023/05/15 08:46:22;;;;;;;;;;;;;;;-147.27;100.00;65176.34;5118084;28;19927;-48
2023/05/15 08:48:48;;;;;;;;;;;;;;;-147.27;100.00;65176.34;5119428;28;19916;-52
2023/05/15 08:51:15;;;;;;;;;;;;;;;-147.27;100.00;65176.34;5118525;28;19912;-52
2023/05/15 08:53:40;;;;;;;;;;;;;;;-147.27;100.00;65176.34;5118079;28;19934;-50
2023/05/15 08:56:06;;;;;;;;;;;;;;;-147.27;100.00;65176.34;5117522;28;19927;-52
2023/05/15 08:58:32;;;;;;;;;;;;;;;-147.27;100.00;65176.34;5118794;28;19916;-50
2023/05/15 09:00:57;;;;;;;;;;;;;;;-147.27;100.00;65176.34;5121862;28;19908;-50
2023/05/15 09:03:23;;;;;;;;;;;;;;;-147.27;100.00;65176.34;5117546;28;19920;-53
2023/05/15 09:05:51;;;;;;;;;;;;;;;-147.27;100.00;65176.34;5119560;28;19916;-55
2023/05/15 09:08:17;;;;;;;;;;;;;;;-147.27;100.00;65176.34;5122241;28;20014;-52
2023/05/15 09:10:43;;;;;;;;;;;;;;;-147.27;100.00;65176.34;5119539;28;19935;-51
2023/05/15 09:13:10;;;;;;;;;;;;;;;-147.27;100.00;65176.34;5119425;28;19916;-56
2023/05/15 09:15:36;;;;;;;;;;;;;;;-147.27;100.00;65176.34;5120187;28;19995;-49
2023/05/15 09:18:02;;;;;;;;;;;;;;;-147.27;100.00;65176.34;5122201;28;19916;-52
2023/05/15 09:20:28;;;;;;;;;;;;;;;-147.27;100.00;65176.34;5120743;28;19961;-55
2023/05/15 09:22:54;;;;;;;;;;;;;;;-147.27;100.00;65176.34;5119532;28;19916;-53
2023/05/15 09:25:39;;;;;;;;;;;;;;;-147.27;100.00;65176.34;5121229;28;19930;-56
2023/05/15 09:28:08;;;;;;;;;;;;;;;-147.27;100.00;65176.34;5118242;28;19920;-54
2023/05/15 09:30:36;;;;;;;;;;;;;;;-147.27;100.00;65176.34;5115627;28;19916;-55
2023/05/15 09:33:03;;;;;;;;;;;;;;;-147.27;100.00;65176.34;5121165;28;20006;-54
2023/05/15 09:35:28;;;;;;;;;;;;;;;-147.27;100.00;65176.34;5121422;28;19915;-56
2023/05/15 09:38:01;;;;;;;;;;;;;;;-147.27;100.00;65176.34;5113271;28;19931;-55
2023/05/15 09:40:27;;;;;;;;;;;;;;;-147.27;100.00;65176.34;5121034;28;19916;-56
2023/05/15 09:42:53;;;;;;;;;;;;;;;-147.27;100.00;65176.34;5120440;28;19915;-55
2023/05/15 09:45:19;;;;;;;;;;;;;;;-147.27;100.00;65176.34;5116292;28;19955;-49
2023/05/15 09:47:45;;;;;;;;;;;;;;;-147.27;100.00;65176.34;5118982;28;19990;-50
2023/05/15 09:50:11;;;;;;;;;;;;;;;-147.27;100.00;65176.34;5121720;28;19923;-53
2023/05/15 09:52:38;;;;;;;;;;;;;;;-147.27;100.00;65176.34;5115862;28;19980;-58
2023/05/15 09:55:03;;;;;;;;;;;;;;;-147.27;100.00;65176.34;5115125;28;19924;-55
2023/05/15 09:57:29;;;;;;;;;;;;;;;-147.27;100.00;65176.34;5115591;28;20011;-49
2023/05/15 09:59:54;;;;;;;;;;;;;;;-147.27;100.00;65176.34;5118862;28;19965;-50
2023/05/15 10:02:23;;;;;;;;;;;;;;;-147.27;100.00;65176.34;5113266;28;19946;-52
2023/05/15 10:04:55;;;;;;;;;;;;;;;-147.27;100.00;65176.34;5113644;28;20010;-51
2023/05/15 10:07:31;;;;;;;;;;;;;;;-147.27;100.00;65176.34;5117916;28;20383;-51
2023/05/15 10:09:56;;;;;;;;;;;;;;;-147.27;100.00;65176.34;5118755;28;19916;-52
2023/05/15 10:12:22;;;;;;;;;;;;;;;-147.27;100.00;65176.34;5117356;28;19926;-54
2023/05/15 10:14:49;;;;;;;;;;;;;;;-147.27;100.00;65176.34;5117310;28;19916;-49
2023/05/15 10:17:14;;;;;;;;;;;;;;;-147.27;100.00;65176.34;5112773;28;19912;-53
2023/05/15 10:19:40;;;;;;;;;;;;;;;-147.27;100.00;65176.34;5118694;28;19970;-49
2023/05/15 10:22:06;;;;;;;;;;;;;;;-147.27;100.00;65176.34;5116564;28;19935;-51
2023/05/15 10:24:32;;;;;;;;;;;;;;;-147.27;100.00;65176.34;5116326;28;19920;-52
2023/05/15 10:26:58;;;;;;;;;;;;;;;-147.27;100.00;65176.34;5114816;28;19927;-54
2023/05/15 10:29:25;;;;;;;;;;;;;;;-147.27;100.00;65176.34;5121216;28;19920;-54
2023/05/15 10:31:51;;;;;;;;;;;;;;;-147.27;100.00;65176.34;5111531;28;19920;-54
2023/05/15 10:34:17;;;;;;;;;;;;;;;-147.27;100.00;65176.34;5113907;28;19927;-55
2023/05/15 10:36:43;;;;;;;;;;;;;;;-147.27;100.00;65176.34;5113916;28;19958;-47
2023/05/15 10:39:08;;;;;;;;;;;;;;;-147.27;100.00;65176.34;5119025;28;19926;-49
2023/05/15 10:41:38;;;;;;;;;;;;;;;-147.27;100.00;65176.34;5116358;28;19943;-52
2023/05/15 10:44:04;;;;;;;;;;;;;;;-147.27;100.00;65176.34;5113943;28;19920;-47
2023/05/15 10:46:32;;;;;;;;;;;;;;;-147.27;100.00;65176.34;5114069;28;19945;-51
2023/05/15 10:48:59;;;;;;;;;;;;;;;-147.27;100.00;65176.34;5116318;28;19976;-53
2023/05/15 10:51:25;;;;;;;;;;;;;;;-147.27;100.00;65176.34;5116192;28;20331;-50
2023/05/15 10:53:50;;;;;;;;;;;;;;;-147.27;100.00;65176.34;5109809;28;19931;-51
2023/05/15 10:56:16;;;;;;;;;;;;;;;-147.27;100.00;65176.34;5105753;28;19923;-54
2023/05/15 10:58:49;;;;;;;;;;;;;;;-147.27;100.00;65176.34;5104595;28;19954;-53
2023/05/15 11:01:23;;;;;;;;;;;;;;;-147.27;100.00;65176.34;5098304;28;19920;-55
2023/05/15 11:03:49;;;;;;;;;;;;;;;-147.27;100.00;65176.34;5104803;28;19924;-55
2023/05/15 11:06:14;;;;;;;;;;;;;;;-147.27;100.00;65176.34;5099507;28;19921;-55
2023/05/15 11:08:41;;;;;;;;;;;;;;;-147.27;100.00;65176.34;5108807;28;19986;-50
2023/05/15 11:11:07;;;;;;;;;;;;;;;-147.27;100.00;65176.34;5108189;28;19920;-50
2023/05/15 11:13:51;;;;;;;;;;;;;;;-147.27;100.00;65176.34;5105051;28;19919;-53
2023/05/15 11:16:36;;;;;;;;;;;;;;;-147.27;100.00;65176.34;5103704;28;20008;-52
2023/05/15 11:19:02;;;;;;;;;;;;;;;-147.27;100.00;65176.34;5103988;28;19946;-53
2023/05/15 11:21:31;;;;;;;;;;;;;;;-147.27;100.00;65176.34;5102458;28;19935;-50
2023/05/15 11:24:02;;;;;;;;;;;;;;;-147.27;100.00;65176.34;5105963;28;19931;-55
2023/05/15 11:26:31;;;;;;;;;;;;;;;-147.27;100.00;65176.34;5102343;28;19924;-52
2023/05/15 11:29:15;;;;;;;;;;;;;;;-147.27;100.00;65176.34;5102356;28;19916;-54
2023/05/15 11:31:41;;;;;;;;;;;;;;;-147.27;100.00;65176.34;5106165;28;19931;-53
2023/05/15 11:34:06;;;;;;;;;;;;;;;-147.27;100.00;65176.34;5108581;28;19917;-58
2023/05/15 11:36:32;;;;;;;;;;;;;;;-147.27;100.00;65176.34;5104569;28;19916;-54
2023/05/15 11:38:58;;;;;;;;;;;;;;;-147.27;100.00;65176.34;5107882;28;19935;-49
2023/05/15 11:41:30;;;;;;;;;;;;;;;-147.27;100.00;65176.34;5106373;28;19962;-56
2023/05/15 11:43:56;;;;;;;;;;;;;;;-147.27;100.00;65176.34;5109500;28;19927;-52
2023/05/15 11:46:22;;;;;;;;;;;;;;;-147.27;100.00;65176.34;5107601;28;19916;-51
2023/05/15 11:48:48;;;;;;;;;;;;;;;-147.27;100.00;65176.34;5109635;28;20015;-52
2023/05/15 11:51:16;;;;;;;;;;;;;;;-147.27;100.00;65176.34;5110329;28;19923;-53
2023/05/15 11:53:41;;;;;;;;;;;;;;;-147.27;100.00;65176.34;5104205;28;19920;-49
2023/05/15 11:56:11;;;;;;;;;;;;;;;-147.27;100.00;65176.34;5105039;28;19924;-53
2023/05/15 11:58:37;;;;;;;;;;;;;;;-147.27;100.00;65176.34;5105382;28;19916;-51
2023/05/15 12:01:03;;;;;;;;;;;;;;;-147.27;100.00;65176.34;5107683;28;19943;-51
2023/05/15 12:03:34;;;;;;;;;;;;;;;-147.27;100.00;65176.34;5102691;28;21317;-54
2023/05/15 12:06:00;;;;;;;;;;;;;;;-147.27;100.00;65176.34;5112647;28;19916;-55
2023/05/15 12:08:36;;;;;;;;;;;;;;;-147.27;100.00;65176.34;5098328;28;19951;-51
2023/05/15 12:11:02;;;;;;;;;;;;;;;-147.27;100.00;65176.34;5100758;28;19912;-51
2023/05/15 12:13:28;;;;;;;;;;;;;;;-147.27;100.00;65176.34;5086328;28;19917;-52
2023/05/15 12:15:54;;;;;;;;;;;;;;;-147.27;100.00;65176.34;5102547;28;19923;-54